Time,TemperatureF,DewpointF,PressureIn,WindDirection,WindDirectionDegrees,WindSpeedMPH,WindSpeedGustMPH,Humidity,HourlyPrecipIn,Conditions,Clouds,dailyrainin,SolarRadiationWatts/m^2,SoftwareType,DateUTC
2015-07-04 00:01:00,56.7,53.5,30.01,SW,232,0.0,0.0,89,0.00,CLR,SKC,0.00,0.0,WeatherDisplay:10.37,2015-07-04 04:01:00,
2015-07-04 00:06:00,56.6,53.4,30.01,SW,232,0.0,0.0,89,0.00,CLR,SKC,0.00,0.0,WeatherDisplay:10.37,2015-07-04 04:06:00,
2015-07-04 00:11:00,56.5,53.0,30.01,SW,232,0.0,0.0,88,0.00,CLR,SKC,0.00,0.0,WeatherDisplay:10.37,2015-07-04 04:11:00,
2015-07-04 00:16:00,56.5,53.3,30.01,SW,232,0.0,0.0,89,0.00,CLR,SKC,0.00,0.0,WeatherDisplay:10.37,2015-07-04 04:16:00,
2015-07-04 00:21:00,56.4,53.5,30.01,SW,232,0.0,0.0,90,0.00,CLR,SKC,0.00,0.0,WeatherDisplay:10.37,2015-07-04 04:21:00,
2015-07-04 00:26:00,56.4,53.5,30.01,SW,232,0.0,0.0,90,0.00,CLR,SKC,0.00,0.0,WeatherDisplay:10.37,2015-07-04 04:26:00,
2015-07-04 00:31:00,56.4,53.5,30.01,SW,232,0.0,0.0,90,0.00,CLR,SKC,0.00,0.0,WeatherDisplay:10.37,2015-07-04 04:31:00,
2015-07-04 00:36:00,56.4,53.5,30.01,SW,232,0.0,0.0,90,0.00,CLR,SKC,0.00,0.0,WeatherDisplay:10.37,2015-07-04 04:36:00,
2015-07-04 00:41:00,56.3,53.4,30.01,SW,232,0.0,0.0,90,0.00,CLR,SKC,0.00,0.0,WeatherDisplay:10.37,2015-07-04 04:41:00,
2015-07-04 00:46:00,56.3,53.4,30.01,SW,232,0.0,0.0,90,0.00,CLR,SKC,0.00,0.0,WeatherDisplay:10.37,2015-07-04 04:46:00,
2015-07-04 00:51:00,56.2,53.6,30.01,SW,232,0.0,0.0,91,0.00,CLR,SKC,0.00,0.0,WeatherDisplay:10.37,2015-07-04 04:51:00,
2015-07-04 00:56:00,56.2,53.6,30.01,SW,232,0.0,0.0,91,0.00,CLR,SKC,0.00,0.0,WeatherDisplay:10.37,2015-07-04 04:56:00,
2015-07-04 01:01:00,56.2,53.6,30.02,SW,232,0.0,0.0,91,0.00,CLR,SKC,0.00,0.0,WeatherDisplay:10.37,2015-07-04 05:01:00,
2015-07-04 01:06:00,56.1,53.5,30.02,SW,232,0.0,0.0,91,0.00,CLR,SKC,0.00,0.0,WeatherDisplay:10.37,2015-07-04 05:06:00,
2015-07-04 01:11:00,56.1,53.5,30.02,SW,232,0.0,0.0,91,0.00,CLR,SKC,0.00,0.0,WeatherDisplay:10.37,2015-07-04 05:11:00,
2015-07-04 01:16:00,56.0,53.4,30.02,SSE,163,0.0,0.0,91,0.00,CLR,SKC,0.00,0.0,WeatherDisplay:10.37,2015-07-04 05:16:00,
2015-07-04 01:21:00,56.0,53.4,30.01,SE,125,0.0,0.0,91,0.00,CLR,SKC,0.00,0.0,WeatherDisplay:10.37,2015-07-04 05:21:00,
2015-07-04 01:26:00,55.9,53.3,30.01,SE,142,0.0,0.0,91,0.00,CLR,SKC,0.00,0.0,WeatherDisplay:10.37,2015-07-04 05:26:00,
2015-07-04 01:31:00,55.8,53.5,30.01,SE,142,0.0,0.0,92,0.00,CLR,SKC,0.00,0.0,WeatherDisplay:10.37,2015-07-04 05:31:00,
2015-07-04 01:36:00,55.8,53.5,30.01,SE,142,0.0,0.0,92,0.00,CLR,SKC,0.00,0.0,WeatherDisplay:10.37,2015-07-04 05:36:00,
2015-07-04 01:41:00,55.7,53.4,30.01,SE,142,0.0,0.0,92,0.00,CLR,SKC,0.00,0.0,WeatherDisplay:10.37,2015-07-04 05:41:00,
2015-07-04 01:46:00,55.6,53.3,30.01,SE,142,0.0,0.0,92,0.00,CLR,SKC,0.00,0.0,WeatherDisplay:10.37,2015-07-04 05:46:00,
2015-07-04 01:51:00,55.6,53.3,30.01,SE,142,0.0,0.0,92,0.00,CLR,SKC,0.00,0.0,WeatherDisplay:10.37,2015-07-04 05:51:00,
2015-07-04 01:56:00,55.5,53.2,30.01,SE,142,0.0,0.0,92,0.00,CLR,SKC,0.00,0.0,WeatherDisplay:10.37,2015-07-04 05:56:00,
2015-07-04 02:01:00,55.6,53.6,30.01,SE,142,0.0,0.0,93,0.00,CLR,SKC,0.00,0.0,WeatherDisplay:10.37,2015-07-04 06:01:00,
2015-07-04 02:06:00,55.6,53.6,30.01,SE,142,0.0,0.0,93,0.00,CLR,SKC,0.00,0.0,WeatherDisplay:10.37,2015-07-04 06:06:00,
2015-07-04 02:11:00,55.5,53.5,30.01,SE,142,0.0,0.0,93,0.00,CLR,SKC,0.00,0.0,WeatherDisplay:10.37,2015-07-04 06:11:00,
2015-07-04 02:16:00,55.4,53.4,30.01,SE,142,0.0,0.0,93,0.00,CLR,SKC,0.00,0.0,WeatherDisplay:10.37,2015-07-04 06:16:00,
2015-07-04 02:21:00,55.4,53.4,30.01,SE,142,0.0,0.0,93,0.00,CLR,SKC,0.00,0.0,WeatherDisplay:10.37,2015-07-04 06:21:00,
2015-07-04 02:26:00,55.4,53.4,30.01,SE,142,0.0,0.0,93,0.00,CLR,SKC,0.00,0.0,WeatherDisplay:10.37,2015-07-04 06:26:00,
2015-07-04 02:31:00,55.2,53.2,30.01,SE,142,0.0,0.0,93,0.00,CLR,SKC,0.00,0.0,WeatherDisplay:10.37,2015-07-04 06:31:00,
2015-07-04 02:36:00,55.1,53.1,30.02,SE,142,0.0,0.0,93,0.00,CLR,SKC,0.00,0.0,WeatherDisplay:10.37,2015-07-04 06:36:00,
2015-07-04 02:41:00,55.1,53.1,30.01,SE,142,0.0,0.0,93,0.00,CLR,SKC,0.00,0.0,WeatherDisplay:10.37,2015-07-04 06:41:00,
2015-07-04 02:46:00,54.9,52.9,30.02,SE,142,0.0,0.0,93,0.00,CLR,SKC,0.00,0.0,WeatherDisplay:10.37,2015-07-04 06:46:00,
2015-07-04 02:51:00,54.9,53.2,30.01,SE,142,0.0,0.0,94,0.00,CLR,SKC,0.00,0.0,WeatherDisplay:10.37,2015-07-04 06:51:00,
2015-07-04 02:56:00,54.8,53.1,30.02,SE,142,0.0,0.0,94,0.00,CLR,SKC,0.00,0.0,WeatherDisplay:10.37,2015-07-04 06:56:00,
2015-07-04 03:01:00,54.7,52.7,30.02,SE,142,0.0,0.0,93,0.00,CLR,SKC,0.00,0.0,WeatherDisplay:10.37,2015-07-04 07:01:00,
2015-07-04 03:06:00,54.6,52.9,30.02,SE,142,0.0,0.0,94,0.00,CLR,SKC,0.00,0.0,WeatherDisplay:10.37,2015-07-04 07:06:00,
2015-07-04 03:11:00,54.4,52.7,30.02,SE,142,0.0,0.0,94,0.00,CLR,SKC,0.00,0.0,WeatherDisplay:10.37,2015-07-04 07:11:00,
2015-07-04 03:16:00,54.4,52.7,30.01,SE,142,0.0,0.0,94,0.00,CLR,SKC,0.00,0.0,WeatherDisplay:10.37,2015-07-04 07:16:00,
2015-07-04 03:21:00,54.3,52.6,30.02,SE,142,0.0,0.0,94,0.00,CLR,SKC,0.00,0.0,WeatherDisplay:10.37,2015-07-04 07:21:00,
2015-07-04 03:26:00,54.2,52.5,30.02,SE,142,0.0,0.0,94,0.00,CLR,SKC,0.00,0.0,WeatherDisplay:10.37,2015-07-04 07:26:00,
2015-07-04 03:31:00,54.1,52.4,30.02,SE,142,0.0,0.0,94,0.00,CLR,SKC,0.00,0.0,WeatherDisplay:10.37,2015-07-04 07:31:00,
2015-07-04 03:36:00,54.0,52.3,30.02,SE,142,0.0,0.0,94,0.00,CLR,SKC,0.00,0.0,WeatherDisplay:10.37,2015-07-04 07:36:00,
2015-07-04 03:41:00,54.0,52.3,30.02,SE,142,0.0,0.0,94,0.00,CLR,SKC,0.00,0.0,WeatherDisplay:10.37,2015-07-04 07:41:00,
2015-07-04 03:46:00,54.0,52.3,30.02,SE,142,0.0,0.0,94,0.00,CLR,SKC,0.00,0.0,WeatherDisplay:10.37,2015-07-04 07:46:00,
2015-07-04 03:51:00,54.0,52.6,30.01,SE,142,0.0,0.0,95,0.00,CLR,SKC,0.00,0.0,WeatherDisplay:10.37,2015-07-04 07:51:00,
2015-07-04 03:56:00,54.0,52.6,30.01,SE,142,0.0,0.0,95,0.00,CLR,SKC,0.00,0.0,WeatherDisplay:10.37,2015-07-04 07:56:00,
2015-07-04 04:01:00,54.1,52.7,30.01,SE,142,0.0,0.0,95,0.00,CLR,SKC,0.00,0.0,WeatherDisplay:10.37,2015-07-04 08:01:00,
2015-07-04 04:06:00,54.2,52.8,30.01,SE,142,0.0,0.0,95,0.00,CLR,SKC,0.00,0.0,WeatherDisplay:10.37,2015-07-04 08:06:00,
2015-07-04 04:11:00,54.2,52.8,30.01,SE,142,0.0,0.0,95,0.00,CLR,SKC,0.00,0.0,WeatherDisplay:10.37,2015-07-04 08:11:00,
2015-07-04 04:16:00,54.3,52.9,30.01,SE,142,0.0,0.0,95,0.00,CLR,SKC,0.00,0.0,WeatherDisplay:10.37,2015-07-04 08:16:00,
2015-07-04 04:21:00,54.3,52.9,30.02,SE,142,0.0,0.0,95,0.00,CLR,SKC,0.00,0.0,WeatherDisplay:10.37,2015-07-04 08:21:00,
2015-07-04 04:26:00,54.2,52.8,30.01,SE,142,0.0,0.0,95,0.00,CLR,SKC,0.00,0.0,WeatherDisplay:10.37,2015-07-04 08:26:00,
2015-07-04 04:31:00,54.2,52.8,30.01,SE,142,0.0,0.0,95,0.00,CLR,SKC,0.00,0.0,WeatherDisplay:10.37,2015-07-04 08:31:00,
2015-07-04 04:36:00,54.1,52.7,30.01,SE,142,0.0,0.0,95,0.00,CLR,SKC,0.00,0.0,WeatherDisplay:10.37,2015-07-04 08:36:00,
2015-07-04 04:41:00,54.1,53.0,30.01,SE,142,0.0,0.0,96,0.00,CLR,SKC,0.00,0.0,WeatherDisplay:10.37,2015-07-04 08:41:00,
2015-07-04 04:46:00,54.1,53.0,30.00,SE,142,0.0,0.0,96,0.00,CLR,SKC,0.00,0.0,WeatherDisplay:10.37,2015-07-04 08:46:00,
2015-07-04 04:51:00,54.1,53.0,30.01,SE,142,0.0,0.0,96,0.00,CLR,SKC,0.00,0.0,WeatherDisplay:10.37,2015-07-04 08:51:00,
2015-07-04 04:56:00,54.1,53.0,30.01,SE,142,0.0,0.0,96,0.00,CLR,SKC,0.00,0.0,WeatherDisplay:10.37,2015-07-04 08:56:00,
2015-07-04 05:01:00,54.1,53.0,30.01,SE,142,0.0,0.0,96,0.00,CLR,SKC,0.00,0.0,WeatherDisplay:10.37,2015-07-04 09:01:00,
2015-07-04 05:06:00,54.1,53.0,30.01,SE,142,0.0,0.0,96,0.00,CLR,SKC,0.00,0.0,WeatherDisplay:10.37,2015-07-04 09:06:00,
2015-07-04 05:11:00,54.1,53.0,30.01,SE,142,0.0,0.0,96,0.00,CLR,SKC,0.00,0.0,WeatherDisplay:10.37,2015-07-04 09:11:00,
2015-07-04 05:16:00,54.1,53.0,30.01,SE,142,0.0,0.0,96,0.00,CLR,SKC,0.00,0.0,WeatherDisplay:10.37,2015-07-04 09:16:00,
2015-07-04 05:21:00,54.1,53.0,30.01,SE,142,0.0,0.0,96,0.00,CLR,SKC,0.00,0.0,WeatherDisplay:10.37,2015-07-04 09:21:00,
2015-07-04 05:26:00,54.1,53.0,30.01,SE,142,0.0,0.0,96,0.00,CLR,SKC,0.00,0.0,WeatherDisplay:10.37,2015-07-04 09:26:00,
2015-07-04 05:31:00,54.1,53.0,30.01,SE,142,0.0,0.0,96,0.00,CLR,SKC,0.00,0.0,WeatherDisplay:10.37,2015-07-04 09:31:00,
2015-07-04 05:36:00,54.2,53.1,30.01,SE,142,0.0,0.0,96,0.00,CLR,SKC,0.00,0.0,WeatherDisplay:10.37,2015-07-04 09:36:00,
2015-07-04 05:41:00,54.3,53.2,30.01,SE,142,0.0,0.0,96,0.00,BKN,SKC,0.00,5.0,WeatherDisplay:10.37,2015-07-04 09:41:00,
2015-07-04 05:46:00,54.4,53.3,30.01,SE,142,0.0,0.0,96,0.00,BKN,SKC,0.00,9.0,WeatherDisplay:10.37,2015-07-04 09:46:00,
2015-07-04 05:51:00,54.5,53.4,30.01,SE,142,0.0,0.0,96,0.00,BKN,SKC,0.00,12.0,WeatherDisplay:10.37,2015-07-04 09:51:00,
2015-07-04 05:56:00,54.5,53.4,30.01,SE,142,0.0,0.0,96,0.00,BKN,SKC,0.00,14.0,WeatherDisplay:10.37,2015-07-04 09:56:00,
2015-07-04 06:01:00,54.6,53.5,30.01,SE,142,0.0,0.0,96,0.00,BKN,SKC,0.00,14.0,WeatherDisplay:10.37,2015-07-04 10:01:00,
2015-07-04 06:06:00,54.6,53.5,30.01,SE,142,0.0,0.0,96,0.00,BKN,SKC,0.00,12.0,WeatherDisplay:10.37,2015-07-04 10:06:00,
2015-07-04 06:11:00,54.7,53.6,30.01,SE,142,0.0,0.0,96,0.00,BKN,SKC,0.00,14.0,WeatherDisplay:10.37,2015-07-04 10:11:00,
2015-07-04 06:16:00,54.8,53.7,30.01,SE,142,0.0,0.0,96,0.00,BKN,SKC,0.00,26.0,WeatherDisplay:10.37,2015-07-04 10:16:00,
2015-07-04 06:21:00,54.9,53.8,30.00,SE,142,0.0,0.0,96,0.00,BKN,SKC,0.00,39.0,WeatherDisplay:10.37,2015-07-04 10:21:00,
2015-07-04 06:26:00,54.9,54.1,30.00,SE,142,0.0,0.0,97,0.00,BKN,SKC,0.00,49.0,WeatherDisplay:10.37,2015-07-04 10:26:00,
2015-07-04 06:31:00,55.1,54.3,30.01,SE,142,0.0,0.0,97,0.00,BKN,SKC,0.00,39.0,WeatherDisplay:10.37,2015-07-04 10:31:00,
2015-07-04 06:36:00,55.2,54.4,30.01,SE,142,0.0,0.0,97,0.00,BKN,SKC,0.00,42.0,WeatherDisplay:10.37,2015-07-04 10:36:00,
2015-07-04 06:41:00,55.3,54.5,30.01,SE,142,0.0,0.0,97,0.00,BKN,SKC,0.00,42.0,WeatherDisplay:10.37,2015-07-04 10:41:00,
2015-07-04 06:46:00,55.5,54.7,30.00,SE,142,0.0,0.0,97,0.00,BKN,SKC,0.00,60.0,WeatherDisplay:10.37,2015-07-04 10:46:00,
2015-07-04 06:51:00,55.7,54.9,30.01,SE,140,0.0,0.0,97,0.00,BKN,SKC,0.00,81.0,WeatherDisplay:10.37,2015-07-04 10:51:00,
2015-07-04 06:56:00,56.0,55.2,30.01,SE,141,0.0,0.0,97,0.00,BKN,SKC,0.00,86.0,WeatherDisplay:10.37,2015-07-04 10:56:00,
2015-07-04 07:01:00,56.2,55.4,30.00,SE,141,0.0,0.0,97,0.00,BKN,SKC,0.00,107.0,WeatherDisplay:10.37,2015-07-04 11:01:00,
2015-07-04 07:06:00,56.5,55.7,30.00,SE,141,0.0,0.0,97,0.00,BKN,SKC,0.00,98.0,WeatherDisplay:10.37,2015-07-04 11:06:00,
2015-07-04 07:11:00,56.8,56.0,30.00,SE,141,0.0,0.0,97,0.00,BKN,SKC,0.00,81.0,WeatherDisplay:10.37,2015-07-04 11:11:00,
2015-07-04 07:16:00,57.0,56.2,30.00,SE,141,0.0,0.0,97,0.00,BKN,SKC,0.00,91.0,WeatherDisplay:10.37,2015-07-04 11:16:00,
2015-07-04 07:21:00,57.3,56.7,30.01,SE,140,0.0,0.0,98,0.00,BKN,SKC,0.00,97.0,WeatherDisplay:10.37,2015-07-04 11:21:00,
2015-07-04 07:26:00,57.6,56.8,30.00,SE,140,0.0,0.0,97,0.00,BKN,SKC,0.00,102.0,WeatherDisplay:10.37,2015-07-04 11:26:00,
2015-07-04 07:31:00,57.8,57.2,30.01,SE,140,0.0,0.0,98,0.00,BKN,SKC,0.00,100.0,WeatherDisplay:10.37,2015-07-04 11:31:00,
2015-07-04 07:36:00,58.1,57.3,30.00,SE,140,0.0,0.0,97,0.00,BKN,SKC,0.00,109.0,WeatherDisplay:10.37,2015-07-04 11:36:00,
2015-07-04 07:41:00,58.3,57.5,30.01,SE,140,0.0,0.0,97,0.00,BKN,SKC,0.00,149.0,WeatherDisplay:10.37,2015-07-04 11:41:00,
2015-07-04 07:46:00,58.6,58.0,30.00,SE,141,0.0,0.0,98,0.00,BKN,SKC,0.00,137.0,WeatherDisplay:10.37,2015-07-04 11:46:00,
2015-07-04 07:51:00,58.8,58.2,30.01,SE,146,0.0,0.0,98,0.00,BKN,SKC,0.00,135.0,WeatherDisplay:10.37,2015-07-04 11:51:00,
2015-07-04 07:56:00,59.1,58.5,30.01,SSE,147,0.0,0.0,98,0.00,BKN,SKC,0.00,149.0,WeatherDisplay:10.37,2015-07-04 11:56:00,
2015-07-04 08:01:00,59.4,58.8,30.01,SSE,147,0.0,0.0,98,0.00,BKN,SKC,0.00,148.0,WeatherDisplay:10.37,2015-07-04 12:01:00,
2015-07-04 08:06:00,59.7,59.1,30.01,SSE,154,0.0,0.0,98,0.00,BKN,SKC,0.00,176.0,WeatherDisplay:10.37,2015-07-04 12:06:00,
2015-07-04 08:11:00,60.0,59.4,30.01,SSE,154,0.0,0.0,98,0.00,BKN,SKC,0.00,209.0,WeatherDisplay:10.37,2015-07-04 12:11:00,
2015-07-04 08:16:00,60.4,59.8,30.01,SSE,157,0.0,0.0,98,0.00,BKN,SKC,0.00,190.0,WeatherDisplay:10.37,2015-07-04 12:16:00,
2015-07-04 08:21:00,60.6,60.0,30.01,SSE,162,0.0,0.0,98,0.00,BKN,SKC,0.00,190.0,WeatherDisplay:10.37,2015-07-04 12:21:00,
2015-07-04 08:26:00,60.7,59.8,30.01,SSE,167,1.2,0.0,97,0.00,BKN,SKC,0.00,193.0,WeatherDisplay:10.37,2015-07-04 12:26:00,